sensor_id;sensor_type;location;lat;lon;timestamp;pressure;altitude;pressure_sealevel;temperature;humidity
75247;BME280;63844;50.042;19.224;2022-12-18T00:01:04;100546.54;;;-4.98;84.24
75247;BME280;63844;50.042;19.224;2022-12-18T00:03:42;100550.61;;;-5.01;84.14
75247;BME280;63844;50.042;19.224;2022-12-18T00:06:08;100555.58;;;-5.03;84.38
75247;BME280;63844;50.042;19.224;2022-12-18T00:08:35;100561.98;;;-5.02;84.40
75247;BME280;63844;50.042;19.224;2022-12-18T00:11:06;100559.91;;;-5.03;84.26
75247;BME280;63844;50.042;19.224;2022-12-18T00:13:34;100558.33;;;-4.96;84.20
75247;BME280;63844;50.042;19.224;2022-12-18T00:16:03;100557.23;;;-4.99;84.27
75247;BME280;63844;50.042;19.224;2022-12-18T00:18:30;100561.89;;;-4.98;84.41
75247;BME280;63844;50.042;19.224;2022-12-18T00:21:01;100563.68;;;-4.95;84.20
75247;BME280;63844;50.042;19.224;2022-12-18T00:23:29;100562.12;;;-4.96;84.18
75247;BME280;63844;50.042;19.224;2022-12-18T00:26:05;100571.43;;;-4.97;84.16
75247;BME280;63844;50.042;19.224;2022-12-18T00:28:33;100574.39;;;-5.03;84.07
75247;BME280;63844;50.042;19.224;2022-12-18T00:31:04;100578.86;;;-5.04;83.90
75247;BME280;63844;50.042;19.224;2022-12-18T00:33:31;100578.35;;;-5.03;83.75
75247;BME280;63844;50.042;19.224;2022-12-18T00:36:08;100583.30;;;-4.98;84.01
75247;BME280;63844;50.042;19.224;2022-12-18T00:38:35;100581.20;;;-4.91;84.23
75247;BME280;63844;50.042;19.224;2022-12-18T00:41:02;100581.60;;;-4.89;83.68
75247;BME280;63844;50.042;19.224;2022-12-18T00:43:28;100587.59;;;-4.83;84.13
75247;BME280;63844;50.042;19.224;2022-12-18T00:45:55;100590.60;;;-4.80;84.01
75247;BME280;63844;50.042;19.224;2022-12-18T00:48:21;100594.20;;;-4.82;83.66
75247;BME280;63844;50.042;19.224;2022-12-18T00:50:49;100599.23;;;-4.81;83.66
75247;BME280;63844;50.042;19.224;2022-12-18T00:53:16;100607.73;;;-4.86;83.36
75247;BME280;63844;50.042;19.224;2022-12-18T00:55:43;100613.04;;;-4.88;83.40
75247;BME280;63844;50.042;19.224;2022-12-18T00:58:11;100612.67;;;-4.90;83.60
75247;BME280;63844;50.042;19.224;2022-12-18T01:00:38;100611.99;;;-4.89;83.66
75247;BME280;63844;50.042;19.224;2022-12-18T01:03:05;100608.42;;;-4.86;83.96
75247;BME280;63844;50.042;19.224;2022-12-18T01:05:32;100614.83;;;-4.85;83.66
75247;BME280;63844;50.042;19.224;2022-12-18T01:07:59;100618.60;;;-4.88;83.58
75247;BME280;63844;50.042;19.224;2022-12-18T01:10:26;100624.61;;;-4.89;83.59
75247;BME280;63844;50.042;19.224;2022-12-18T01:12:52;100628.86;;;-4.91;83.47
75247;BME280;63844;50.042;19.224;2022-12-18T01:15:19;100630.84;;;-4.96;83.61
75247;BME280;63844;50.042;19.224;2022-12-18T01:17:45;100633.65;;;-4.94;83.68
75247;BME280;63844;50.042;19.224;2022-12-18T01:20:12;100633.27;;;-4.95;83.65
75247;BME280;63844;50.042;19.224;2022-12-18T01:22:39;100635.39;;;-4.92;83.62
75247;BME280;63844;50.042;19.224;2022-12-18T01:25:06;100636.54;;;-4.88;83.71
75247;BME280;63844;50.042;19.224;2022-12-18T01:27:33;100637.38;;;-4.89;83.85
75247;BME280;63844;50.042;19.224;2022-12-18T01:30:00;100638.88;;;-4.91;83.79
75247;BME280;63844;50.042;19.224;2022-12-18T01:32:29;100641.48;;;-4.91;83.80
75247;BME280;63844;50.042;19.224;2022-12-18T01:34:56;100639.36;;;-4.93;83.96
75247;BME280;63844;50.042;19.224;2022-12-18T01:37:23;100634.53;;;-4.93;83.89
75247;BME280;63844;50.042;19.224;2022-12-18T01:39:49;100633.42;;;-4.96;83.99
75247;BME280;63844;50.042;19.224;2022-12-18T01:42:16;100633.75;;;-4.97;83.96
75247;BME280;63844;50.042;19.224;2022-12-18T01:47:46;100636.60;;;-4.93;83.82
75247;BME280;63844;50.042;19.224;2022-12-18T01:50:16;100640.21;;;-4.93;83.93
75247;BME280;63844;50.042;19.224;2022-12-18T01:52:48;100645.56;;;-4.94;83.92
75247;BME280;63844;50.042;19.224;2022-12-18T01:55:16;100649.39;;;-4.92;84.06
75247;BME280;63844;50.042;19.224;2022-12-18T01:57:44;100655.77;;;-4.93;83.85
75247;BME280;63844;50.042;19.224;2022-12-18T02:00:13;100658.95;;;-4.89;83.88
75247;BME280;63844;50.042;19.224;2022-12-18T02:02:41;100656.56;;;-4.89;84.21
75247;BME280;63844;50.042;19.224;2022-12-18T02:05:10;100659.63;;;-4.90;83.98
75247;BME280;63844;50.042;19.224;2022-12-18T02:07:54;100665.47;;;-4.91;83.68
75247;BME280;63844;50.042;19.224;2022-12-18T02:10:34;100668.21;;;-4.92;83.72
75247;BME280;63844;50.042;19.224;2022-12-18T02:13:19;100670.11;;;-4.92;83.71
75247;BME280;63844;50.042;19.224;2022-12-18T02:15:57;100681.55;;;-4.90;84.34
75247;BME280;63844;50.042;19.224;2022-12-18T02:18:30;100690.28;;;-4.86;83.88
75247;BME280;63844;50.042;19.224;2022-12-18T02:23:47;100694.13;;;-4.84;83.52
75247;BME280;63844;50.042;19.224;2022-12-18T02:26:34;100699.29;;;-4.85;83.51
75247;BME280;63844;50.042;19.224;2022-12-18T02:29:08;100703.89;;;-4.88;83.39
75247;BME280;63844;50.042;19.224;2022-12-18T02:31:40;100700.42;;;-4.88;83.08
75247;BME280;63844;50.042;19.224;2022-12-18T02:34:09;100707.73;;;-4.93;83.44
75247;BME280;63844;50.042;19.224;2022-12-18T02:36:40;100706.12;;;-4.88;83.40
75247;BME280;63844;50.042;19.224;2022-12-18T02:39:09;100704.28;;;-4.86;83.56
75247;BME280;63844;50.042;19.224;2022-12-18T02:41:37;100699.55;;;-4.81;83.50
75247;BME280;63844;50.042;19.224;2022-12-18T02:44:11;100698.79;;;-4.84;83.24
75247;BME280;63844;50.042;19.224;2022-12-18T02:46:41;100701.52;;;-4.86;83.14
75247;BME280;63844;50.042;19.224;2022-12-18T02:49:43;100708.59;;;-4.86;83.29
75247;BME280;63844;50.042;19.224;2022-12-18T02:55:38;100723.31;;;-4.91;83.58
75247;BME280;63844;50.042;19.224;2022-12-18T02:58:16;100729.02;;;-4.98;83.51
75247;BME280;63844;50.042;19.224;2022-12-18T03:00:51;100731.73;;;-4.93;83.31
75247;BME280;63844;50.042;19.224;2022-12-18T03:03:27;100732.34;;;-4.97;83.69
75247;BME280;63844;50.042;19.224;2022-12-18T03:06:01;100735.65;;;-4.95;83.47
75247;BME280;63844;50.042;19.224;2022-12-18T03:08:35;100744.43;;;-4.89;83.80
75247;BME280;63844;50.042;19.224;2022-12-18T03:11:07;100742.50;;;-4.90;83.42
75247;BME280;63844;50.042;19.224;2022-12-18T03:13:43;100741.56;;;-4.86;83.31
75247;BME280;63844;50.042;19.224;2022-12-18T03:16:15;100738.75;;;-4.88;83.23
75247;BME280;63844;50.042;19.224;2022-12-18T03:18:48;100738.09;;;-4.87;83.15
75247;BME280;63844;50.042;19.224;2022-12-18T03:21:19;100739.20;;;-4.84;83.25
75247;BME280;63844;50.042;19.224;2022-12-18T03:23:49;100740.10;;;-4.82;83.06
75247;BME280;63844;50.042;19.224;2022-12-18T03:26:22;100740.48;;;-4.87;82.63
75247;BME280;63844;50.042;19.224;2022-12-18T03:28:57;100738.52;;;-4.90;82.98
75247;BME280;63844;50.042;19.224;2022-12-18T03:31:27;100739.16;;;-4.93;82.79
75247;BME280;63844;50.042;19.224;2022-12-18T03:33:59;100742.75;;;-4.87;83.05
75247;BME280;63844;50.042;19.224;2022-12-18T03:36:26;100741.08;;;-4.85;83.04
75247;BME280;63844;50.042;19.224;2022-12-18T03:38:53;100745.60;;;-4.83;83.49
75247;BME280;63844;50.042;19.224;2022-12-18T03:41:31;100746.77;;;-4.86;82.95
75247;BME280;63844;50.042;19.224;2022-12-18T03:44:07;100750.77;;;-4.84;83.08
75247;BME280;63844;50.042;19.224;2022-12-18T03:47:16;100754.33;;;-4.87;82.74
75247;BME280;63844;50.042;19.224;2022-12-18T03:49:53;100761.25;;;-4.93;82.35
75247;BME280;63844;50.042;19.224;2022-12-18T03:52:26;100762.59;;;-4.95;82.73
75247;BME280;63844;50.042;19.224;2022-12-18T03:54:56;100762.05;;;-4.95;82.97
75247;BME280;63844;50.042;19.224;2022-12-18T03:57:26;100765.31;;;-4.90;83.07
75247;BME280;63844;50.042;19.224;2022-12-18T03:59:57;100765.41;;;-4.85;82.94
75247;BME280;63844;50.042;19.224;2022-12-18T04:02:26;100767.91;;;-4.82;82.77
75247;BME280;63844;50.042;19.224;2022-12-18T04:04:58;100768.80;;;-4.82;82.60
75247;BME280;63844;50.042;19.224;2022-12-18T04:07:26;100775.98;;;-4.84;82.32
75247;BME280;63844;50.042;19.224;2022-12-18T04:09:55;100778.77;;;-4.90;82.37
75247;BME280;63844;50.042;19.224;2022-12-18T04:12:26;100779.08;;;-4.91;82.71
75247;BME280;63844;50.042;19.224;2022-12-18T04:14:52;100779.89;;;-5.00;82.60
75247;BME280;63844;50.042;19.224;2022-12-18T04:17:19;100788.95;;;-4.97;82.65
75247;BME280;63844;50.042;19.224;2022-12-18T04:19:46;100792.86;;;-4.93;82.77
75247;BME280;63844;50.042;19.224;2022-12-18T04:22:12;100797.20;;;-4.92;82.89
75247;BME280;63844;50.042;19.224;2022-12-18T04:24:39;100803.16;;;-4.96;82.74
75247;BME280;63844;50.042;19.224;2022-12-18T04:27:05;100805.82;;;-4.92;82.79
75247;BME280;63844;50.042;19.224;2022-12-18T04:29:32;100807.77;;;-4.90;82.75
75247;BME280;63844;50.042;19.224;2022-12-18T04:31:58;100814.64;;;-4.86;82.90
75247;BME280;63844;50.042;19.224;2022-12-18T04:34:24;100815.30;;;-4.93;82.33
75247;BME280;63844;50.042;19.224;2022-12-18T04:36:51;100814.92;;;-4.94;82.56
75247;BME280;63844;50.042;19.224;2022-12-18T04:39:17;100813.32;;;-4.96;82.46
75247;BME280;63844;50.042;19.224;2022-12-18T04:41:44;100817.84;;;-5.01;82.99
75247;BME280;63844;50.042;19.224;2022-12-18T04:44:10;100819.18;;;-5.03;82.87
75247;BME280;63844;50.042;19.224;2022-12-18T04:46:36;100822.23;;;-5.05;82.72
75247;BME280;63844;50.042;19.224;2022-12-18T04:49:03;100829.62;;;-5.07;82.63
75247;BME280;63844;50.042;19.224;2022-12-18T04:51:29;100825.25;;;-5.08;82.93
75247;BME280;63844;50.042;19.224;2022-12-18T04:53:56;100823.98;;;-5.05;82.89
75247;BME280;63844;50.042;19.224;2022-12-18T04:56:22;100829.23;;;-5.02;83.05
75247;BME280;63844;50.042;19.224;2022-12-18T04:58:49;100835.45;;;-5.02;83.06
75247;BME280;63844;50.042;19.224;2022-12-18T05:01:17;100841.35;;;-5.00;82.95
75247;BME280;63844;50.042;19.224;2022-12-18T05:03:44;100840.81;;;-5.01;82.76
75247;BME280;63844;50.042;19.224;2022-12-18T05:06:10;100844.94;;;-5.02;82.67
75247;BME280;63844;50.042;19.224;2022-12-18T05:08:37;100851.14;;;-5.02;82.48
75247;BME280;63844;50.042;19.224;2022-12-18T05:11:08;100851.77;;;-5.04;82.57
75247;BME280;63844;50.042;19.224;2022-12-18T05:13:35;100857.52;;;-5.09;82.62
75247;BME280;63844;50.042;19.224;2022-12-18T05:16:02;100855.37;;;-5.05;82.84
75247;BME280;63844;50.042;19.224;2022-12-18T05:18:29;100853.30;;;-5.05;82.69
75247;BME280;63844;50.042;19.224;2022-12-18T05:20:56;100856.73;;;-5.05;82.32
75247;BME280;63844;50.042;19.224;2022-12-18T05:23:24;100861.89;;;-5.01;82.64
75247;BME280;63844;50.042;19.224;2022-12-18T05:25:52;100863.65;;;-5.05;82.10
75247;BME280;63844;50.042;19.224;2022-12-18T05:28:19;100863.30;;;-5.06;82.13
75247;BME280;63844;50.042;19.224;2022-12-18T05:30:55;100866.46;;;-5.03;82.01
75247;BME280;63844;50.042;19.224;2022-12-18T05:33:24;100865.23;;;-5.05;82.28
75247;BME280;63844;50.042;19.224;2022-12-18T05:35:56;100864.34;;;-5.06;81.88
75247;BME280;63844;50.042;19.224;2022-12-18T05:38:24;100863.28;;;-5.06;82.21
75247;BME280;63844;50.042;19.224;2022-12-18T05:40:52;100865.04;;;-5.05;82.60
75247;BME280;63844;50.042;19.224;2022-12-18T05:43:19;100872.90;;;-5.02;82.10
75247;BME280;63844;50.042;19.224;2022-12-18T05:45:48;100871.85;;;-5.03;82.40
75247;BME280;63844;50.042;19.224;2022-12-18T05:48:15;100872.08;;;-5.00;82.39
75247;BME280;63844;50.042;19.224;2022-12-18T05:50:43;100874.75;;;-5.04;81.61
75247;BME280;63844;50.042;19.224;2022-12-18T05:53:14;100881.24;;;-5.06;81.76
75247;BME280;63844;50.042;19.224;2022-12-18T05:55:42;100879.88;;;-5.00;82.33
75247;BME280;63844;50.042;19.224;2022-12-18T05:58:09;100881.58;;;-5.00;81.81
75247;BME280;63844;50.042;19.224;2022-12-18T06:00:39;100885.41;;;-5.05;82.03
75247;BME280;63844;50.042;19.224;2022-12-18T06:03:10;100893.72;;;-5.05;81.81
75247;BME280;63844;50.042;19.224;2022-12-18T06:05:38;100894.66;;;-5.08;81.53
75247;BME280;63844;50.042;19.224;2022-12-18T06:08:05;100892.65;;;-5.12;81.50
75247;BME280;63844;50.042;19.224;2022-12-18T06:10:31;100895.11;;;-5.10;81.65
75247;BME280;63844;50.042;19.224;2022-12-18T06:12:58;100895.08;;;-5.11;81.43
75247;BME280;63844;50.042;19.224;2022-12-18T06:15:25;100899.34;;;-5.14;81.48
75247;BME280;63844;50.042;19.224;2022-12-18T06:17:51;100902.17;;;-5.05;81.70
75247;BME280;63844;50.042;19.224;2022-12-18T06:20:18;100899.91;;;-5.06;81.65
75247;BME280;63844;50.042;19.224;2022-12-18T06:22:44;100903.58;;;-5.04;81.97
75247;BME280;63844;50.042;19.224;2022-12-18T06:25:11;100903.60;;;-5.03;81.73
75247;BME280;63844;50.042;19.224;2022-12-18T06:27:38;100909.46;;;-5.04;81.96
75247;BME280;63844;50.042;19.224;2022-12-18T06:30:06;100911.67;;;-5.04;81.72
75247;BME280;63844;50.042;19.224;2022-12-18T06:32:32;100918.20;;;-5.05;81.44
75247;BME280;63844;50.042;19.224;2022-12-18T06:34:59;100920.75;;;-5.07;81.48
75247;BME280;63844;50.042;19.224;2022-12-18T06:37:25;100920.36;;;-5.03;81.59
75247;BME280;63844;50.042;19.224;2022-12-18T06:39:53;100919.79;;;-5.04;81.48
75247;BME280;63844;50.042;19.224;2022-12-18T06:42:19;100922.28;;;-5.08;80.80
75247;BME280;63844;50.042;19.224;2022-12-18T06:44:46;100925.48;;;-5.05;81.04
75247;BME280;63844;50.042;19.224;2022-12-18T06:47:12;100925.88;;;-5.03;81.14
75247;BME280;63844;50.042;19.224;2022-12-18T06:49:38;100928.20;;;-5.06;80.87
75247;BME280;63844;50.042;19.224;2022-12-18T06:52:05;100934.20;;;-5.08;81.15
75247;BME280;63844;50.042;19.224;2022-12-18T06:54:31;100938.35;;;-5.07;81.31
75247;BME280;63844;50.042;19.224;2022-12-18T06:56:58;100942.34;;;-5.07;81.38
75247;BME280;63844;50.042;19.224;2022-12-18T06:59:24;100949.06;;;-5.07;81.01
75247;BME280;63844;50.042;19.224;2022-12-18T07:01:50;100948.91;;;-5.06;80.95
75247;BME280;63844;50.042;19.224;2022-12-18T07:04:17;100957.02;;;-5.07;80.63
75247;BME280;63844;50.042;19.224;2022-12-18T07:06:43;100961.86;;;-5.00;81.41
75247;BME280;63844;50.042;19.224;2022-12-18T07:09:10;100963.46;;;-4.99;80.91
75247;BME280;63844;50.042;19.224;2022-12-18T07:11:36;100965.58;;;-4.97;80.70
75247;BME280;63844;50.042;19.224;2022-12-18T07:14:02;100970.30;;;-4.95;80.17
75247;BME280;63844;50.042;19.224;2022-12-18T07:16:29;100970.50;;;-4.94;79.95
75247;BME280;63844;50.042;19.224;2022-12-18T07:18:55;100972.51;;;-4.90;80.35
75247;BME280;63844;50.042;19.224;2022-12-18T07:21:23;100974.27;;;-4.89;80.18
75247;BME280;63844;50.042;19.224;2022-12-18T07:23:50;100975.88;;;-4.88;80.10
75247;BME280;63844;50.042;19.224;2022-12-18T07:26:18;100981.90;;;-4.88;79.80
75247;BME280;63844;50.042;19.224;2022-12-18T07:28:46;100984.77;;;-4.85;80.08
75247;BME280;63844;50.042;19.224;2022-12-18T07:31:15;100993.96;;;-4.83;80.13
75247;BME280;63844;50.042;19.224;2022-12-18T07:33:44;100999.59;;;-4.79;80.05
75247;BME280;63844;50.042;19.224;2022-12-18T07:36:11;101005.61;;;-4.80;79.74
75247;BME280;63844;50.042;19.224;2022-12-18T07:38:38;101005.94;;;-4.81;79.63
75247;BME280;63844;50.042;19.224;2022-12-18T07:41:09;101006.20;;;-4.84;79.24
75247;BME280;63844;50.042;19.224;2022-12-18T07:43:37;101002.54;;;-4.85;79.14
75247;BME280;63844;50.042;19.224;2022-12-18T07:46:05;101002.50;;;-4.80;79.45
75247;BME280;63844;50.042;19.224;2022-12-18T07:48:31;101000.41;;;-4.75;79.35
75247;BME280;63844;50.042;19.224;2022-12-18T07:51:02;101002.18;;;-4.67;79.52
75247;BME280;63844;50.042;19.224;2022-12-18T07:53:31;101005.20;;;-4.57;79.49
75247;BME280;63844;50.042;19.224;2022-12-18T07:55:58;101003.95;;;-4.47;80.59
75247;BME280;63844;50.042;19.224;2022-12-18T07:58:25;101002.30;;;-4.50;79.65
75247;BME280;63844;50.042;19.224;2022-12-18T08:00:52;101003.89;;;-4.49;79.47
75247;BME280;63844;50.042;19.224;2022-12-18T08:03:19;101007.46;;;-4.44;79.12
75247;BME280;63844;50.042;19.224;2022-12-18T08:05:45;101009.18;;;-4.45;78.49
75247;BME280;63844;50.042;19.224;2022-12-18T08:08:12;101008.60;;;-4.41;78.26
75247;BME280;63844;50.042;19.224;2022-12-18T08:10:38;101005.75;;;-4.37;78.36
75247;BME280;63844;50.042;19.224;2022-12-18T08:13:05;101008.24;;;-4.35;79.19
75247;BME280;63844;50.042;19.224;2022-12-18T08:15:32;101005.80;;;-4.36;79.24
75247;BME280;63844;50.042;19.224;2022-12-18T08:17:58;101008.32;;;-4.32;79.23
75247;BME280;63844;50.042;19.224;2022-12-18T08:20:24;101008.36;;;-4.31;79.15
75247;BME280;63844;50.042;19.224;2022-12-18T08:22:51;101011.27;;;-4.32;78.67
75247;BME280;63844;50.042;19.224;2022-12-18T08:25:17;101014.66;;;-4.28;79.00
75247;BME280;63844;50.042;19.224;2022-12-18T08:27:44;101020.47;;;-4.31;78.91
75247;BME280;63844;50.042;19.224;2022-12-18T08:30:11;101021.66;;;-4.31;78.06
75247;BME280;63844;50.042;19.224;2022-12-18T08:32:37;101023.63;;;-4.28;78.59
75247;BME280;63844;50.042;19.224;2022-12-18T08:35:04;101024.03;;;-4.26;78.93
75247;BME280;63844;50.042;19.224;2022-12-18T08:37:30;101028.09;;;-4.22;79.02
75247;BME280;63844;50.042;19.224;2022-12-18T08:39:57;101026.43;;;-4.27;78.55
75247;BME280;63844;50.042;19.224;2022-12-18T08:42:23;101030.09;;;-4.39;76.45
75247;BME280;63844;50.042;19.224;2022-12-18T08:45:08;101031.09;;;-4.34;77.07
75247;BME280;63844;50.042;19.224;2022-12-18T08:47:35;101034.70;;;-4.35;76.72
75247;BME280;63844;50.042;19.224;2022-12-18T08:50:02;101040.04;;;-4.36;76.46
75247;BME280;63844;50.042;19.224;2022-12-18T08:52:31;101043.00;;;-4.40;76.44
75247;BME280;63844;50.042;19.224;2022-12-18T08:54:58;101045.90;;;-4.42;76.38
75247;BME280;63844;50.042;19.224;2022-12-18T08:57:24;101051.70;;;-4.45;76.47
75247;BME280;63844;50.042;19.224;2022-12-18T08:59:50;101052.71;;;-4.39;77.12
75247;BME280;63844;50.042;19.224;2022-12-18T09:02:17;101055.91;;;-4.36;77.76
75247;BME280;63844;50.042;19.224;2022-12-18T09:04:46;101054.95;;;-4.33;77.31
75247;BME280;63844;50.042;19.224;2022-12-18T09:07:13;101053.88;;;-4.34;77.24
75247;BME280;63844;50.042;19.224;2022-12-18T09:09:40;101056.64;;;-4.29;77.36
75247;BME280;63844;50.042;19.224;2022-12-18T09:12:06;101057.70;;;-4.21;78.60
75247;BME280;63844;50.042;19.224;2022-12-18T09:14:33;101058.73;;;-4.21;77.80
75247;BME280;63844;50.042;19.224;2022-12-18T09:17:00;101064.16;;;-4.12;77.71
75247;BME280;63844;50.042;19.224;2022-12-18T09:19:26;101069.93;;;-4.03;78.78
75247;BME280;63844;50.042;19.224;2022-12-18T09:21:53;101071.34;;;-4.09;76.99
75247;BME280;63844;50.042;19.224;2022-12-18T09:24:19;101077.39;;;-4.10;76.26
75247;BME280;63844;50.042;19.224;2022-12-18T09:26:46;101080.70;;;-4.08;76.66
75247;BME280;63844;50.042;19.224;2022-12-18T09:29:12;101076.70;;;-4.16;75.18
75247;BME280;63844;50.042;19.224;2022-12-18T09:31:39;101078.31;;;-4.14;75.07
75247;BME280;63844;50.042;19.224;2022-12-18T09:34:06;101077.25;;;-4.21;74.26
75247;BME280;63844;50.042;19.224;2022-12-18T09:36:32;101073.00;;;-4.24;74.54
75247;BME280;63844;50.042;19.224;2022-12-18T09:38:59;101072.93;;;-4.26;74.32
75247;BME280;63844;50.042;19.224;2022-12-18T09:44:01;101075.44;;;-4.23;74.95
75247;BME280;63844;50.042;19.224;2022-12-18T09:46:33;101077.30;;;-4.32;74.72
75247;BME280;63844;50.042;19.224;2022-12-18T09:49:06;101086.95;;;-4.32;74.41
75247;BME280;63844;50.042;19.224;2022-12-18T09:51:45;101086.77;;;-4.33;74.57
75247;BME280;63844;50.042;19.224;2022-12-18T09:54:20;101088.66;;;-4.26;74.63
75247;BME280;63844;50.042;19.224;2022-12-18T09:56:48;101093.05;;;-4.24;74.87
75247;BME280;63844;50.042;19.224;2022-12-18T09:59:23;101093.74;;;-4.24;74.60
75247;BME280;63844;50.042;19.224;2022-12-18T10:01:50;101086.34;;;-4.23;74.73
75247;BME280;63844;50.042;19.224;2022-12-18T10:04:18;101081.71;;;-4.16;74.53
75247;BME280;63844;50.042;19.224;2022-12-18T10:06:46;101085.38;;;-4.08;75.85
75247;BME280;63844;50.042;19.224;2022-12-18T10:12:17;101086.86;;;-4.04;74.33
75247;BME280;63844;50.042;19.224;2022-12-18T10:15:02;101080.29;;;-4.04;73.62
75247;BME280;63844;50.042;19.224;2022-12-18T10:17:56;101073.98;;;-4.00;74.86
75247;BME280;63844;50.042;19.224;2022-12-18T10:20:32;101067.32;;;-3.91;74.86
75247;BME280;63844;50.042;19.224;2022-12-18T10:23:13;101064.36;;;-3.92;75.59
75247;BME280;63844;50.042;19.224;2022-12-18T10:25:53;101068.06;;;-3.82;75.85
75247;BME280;63844;50.042;19.224;2022-12-18T10:28:23;101069.02;;;-3.72;76.00
75247;BME280;63844;50.042;19.224;2022-12-18T10:30:50;101074.45;;;-3.69;75.35
75247;BME280;63844;50.042;19.224;2022-12-18T10:33:19;101079.56;;;-3.66;74.25
75247;BME280;63844;50.042;19.224;2022-12-18T10:35:48;101077.48;;;-3.66;73.17
75247;BME280;63844;50.042;19.224;2022-12-18T10:40:55;101058.97;;;-3.52;75.31
75247;BME280;63844;50.042;19.224;2022-12-18T10:43:32;101055.12;;;-3.53;74.41
75247;BME280;63844;50.042;19.224;2022-12-18T10:48:34;101049.27;;;-3.52;72.48
75247;BME280;63844;50.042;19.224;2022-12-18T10:51:03;101043.23;;;-3.44;73.60
75247;BME280;63844;50.042;19.224;2022-12-18T10:53:31;101049.27;;;-3.38;75.83
75247;BME280;63844;50.042;19.224;2022-12-18T10:56:02;101048.80;;;-3.35;76.10
75247;BME280;63844;50.042;19.224;2022-12-18T10:58:34;101043.11;;;-3.26;74.48
75247;BME280;63844;50.042;19.224;2022-12-18T11:01:07;101032.84;;;-3.21;75.48
75247;BME280;63844;50.042;19.224;2022-12-18T11:03:40;101034.23;;;-3.21;75.12
75247;BME280;63844;50.042;19.224;2022-12-18T11:06:12;101037.39;;;-3.20;75.03
75247;BME280;63844;50.042;19.224;2022-12-18T11:08:56;101030.98;;;-3.12;74.81
75247;BME280;63844;50.042;19.224;2022-12-18T11:11:24;101030.54;;;-3.07;74.73
75247;BME280;63844;50.042;19.224;2022-12-18T11:14:18;101026.94;;;-3.06;73.99
75247;BME280;63844;50.042;19.224;2022-12-18T11:16:49;101025.33;;;-3.01;73.50
75247;BME280;63844;50.042;19.224;2022-12-18T11:22:01;101014.33;;;-2.89;72.49
75247;BME280;63844;50.042;19.224;2022-12-18T11:24:32;101012.74;;;-2.81;74.05
75247;BME280;63844;50.042;19.224;2022-12-18T11:27:02;101012.58;;;-2.73;73.29
75247;BME280;63844;50.042;19.224;2022-12-18T11:29:38;101008.05;;;-2.65;73.00
75247;BME280;63844;50.042;19.224;2022-12-18T11:32:27;101012.71;;;-2.75;72.29
75247;BME280;63844;50.042;19.224;2022-12-18T11:35:52;101011.05;;;-2.72;72.57
75247;BME280;63844;50.042;19.224;2022-12-18T11:41:19;101017.58;;;-2.66;72.71
75247;BME280;63844;50.042;19.224;2022-12-18T11:43:52;101020.19;;;-2.65;72.32
75247;BME280;63844;50.042;19.224;2022-12-18T11:46:27;101017.49;;;-2.69;71.55
75247;BME280;63844;50.042;19.224;2022-12-18T11:54:20;101015.38;;;-2.54;71.30
75247;BME280;63844;50.042;19.224;2022-12-18T11:57:09;101018.84;;;-2.46;71.51
75247;BME280;63844;50.042;19.224;2022-12-18T12:00:02;101018.73;;;-2.52;70.85
75247;BME280;63844;50.042;19.224;2022-12-18T12:03:02;101021.46;;;-2.44;71.72
75247;BME280;63844;50.042;19.224;2022-12-18T12:14:12;101033.94;;;-2.35;71.68
75247;BME280;63844;50.042;19.224;2022-12-18T12:19:39;101029.16;;;-2.40;70.92
75247;BME280;63844;50.042;19.224;2022-12-18T12:25:30;101027.80;;;-2.40;72.30
75247;BME280;63844;50.042;19.224;2022-12-18T12:34:34;101036.68;;;-2.55;71.33
75247;BME280;63844;50.042;19.224;2022-12-18T12:39:42;101044.09;;;-2.57;70.85
75247;BME280;63844;50.042;19.224;2022-12-18T12:42:26;101045.95;;;-2.60;69.77
75247;BME280;63844;50.042;19.224;2022-12-18T12:45:21;101048.84;;;-2.55;70.54
75247;BME280;63844;50.042;19.224;2022-12-18T12:47:51;101054.21;;;-2.54;69.60
75247;BME280;63844;50.042;19.224;2022-12-18T12:50:20;101056.79;;;-2.47;72.66
75247;BME280;63844;50.042;19.224;2022-12-18T12:52:52;101057.16;;;-2.45;72.49
75247;BME280;63844;50.042;19.224;2022-12-18T12:55:29;101057.53;;;-2.45;72.44
75247;BME280;63844;50.042;19.224;2022-12-18T12:58:08;101052.73;;;-2.42;72.81
75247;BME280;63844;50.042;19.224;2022-12-18T13:01:03;101051.89;;;-2.32;72.21
75247;BME280;63844;50.042;19.224;2022-12-18T13:06:08;101058.83;;;-2.32;71.98
75247;BME280;63844;50.042;19.224;2022-12-18T13:08:53;101066.40;;;-2.35;71.49
75247;BME280;63844;50.042;19.224;2022-12-18T13:14:40;101069.46;;;-2.19;70.88
75247;BME280;63844;50.042;19.224;2022-12-18T13:19:50;101071.70;;;-2.38;71.38
75247;BME280;63844;50.042;19.224;2022-12-18T13:22:23;101070.34;;;-2.54;72.46
75247;BME280;63844;50.042;19.224;2022-12-18T13:24:51;101074.38;;;-2.68;72.44
75247;BME280;63844;50.042;19.224;2022-12-18T13:43:42;101099.17;;;-3.21;74.50
75247;BME280;63844;50.042;19.224;2022-12-18T13:46:28;101097.74;;;-3.30;74.43
75247;BME280;63844;50.042;19.224;2022-12-18T13:49:15;101093.48;;;-3.42;73.97
75247;BME280;63844;50.042;19.224;2022-12-18T13:51:50;101096.95;;;-3.55;74.35
75247;BME280;63844;50.042;19.224;2022-12-18T13:54:30;101093.85;;;-3.68;74.14
75247;BME280;63844;50.042;19.224;2022-12-18T13:56:59;101096.66;;;-3.80;74.25
75247;BME280;63844;50.042;19.224;2022-12-18T13:59:37;101100.05;;;-3.89;74.57
75247;BME280;63844;50.042;19.224;2022-12-18T14:02:14;101098.55;;;-4.00;74.71
75247;BME280;63844;50.042;19.224;2022-12-18T14:04:45;101100.58;;;-4.09;75.00
75247;BME280;63844;50.042;19.224;2022-12-18T14:07:15;101107.15;;;-4.15;75.12
75247;BME280;63844;50.042;19.224;2022-12-18T14:09:45;101108.17;;;-4.21;75.45
75247;BME280;63844;50.042;19.224;2022-12-18T14:12:32;101106.29;;;-4.28;75.87
75247;BME280;63844;50.042;19.224;2022-12-18T14:15:31;101108.21;;;-4.38;76.04
75247;BME280;63844;50.042;19.224;2022-12-18T14:18:18;101109.21;;;-4.40;76.42